Time;durP1;ratioP1;P1;durP2;ratioP2;P2;SDS_P1;SDS_P2;PMS_P1;PMS_P2;Temp;Humidity;BMP_temperature;BMP_pressure;BME280_temperature;BME280_humidity;BME280_pressure;Samples;Min_cycle;Max_cycle;Signal;HPM_P1;HPM_P2
2022/09/06 00:01:40;;;;;;;1.50;1.10;;;13.50;71.60;;;;;;5053599;28;20198;-71
2022/09/06 00:04:07;;;;;;;1.33;1.20;;;13.50;71.50;;;;;;5055301;28;20209;-73
2022/09/06 00:06:34;;;;;;;2.03;1.13;;;13.40;72.40;;;;;;5054918;28;20209;-72
2022/09/06 00:09:01;;;;;;;0.70;0.70;;;13.40;71.90;;;;;;5048541;28;20203;-72
2022/09/06 00:11:29;;;;;;;3.37;1.37;;;13.30;71.70;;;;;;5052842;28;20297;-72
2022/09/06 00:13:56;;;;;;;2.13;1.13;;;13.30;72.00;;;;;;5052276;28;20502;-73
2022/09/06 00:16:24;;;;;;;3.60;1.03;;;13.30;72.10;;;;;;5054473;28;20202;-73
2022/09/06 00:18:53;;;;;;;3.00;1.47;;;13.20;72.00;;;;;;5054772;28;20212;-72
2022/09/06 00:21:22;;;;;;;2.03;1.10;;;13.20;72.10;;;;;;5054292;28;20214;-72
2022/09/06 00:23:50;;;;;;;1.53;1.10;;;13.20;72.10;;;;;;5055680;28;20673;-74
2022/09/06 00:26:17;;;;;;;1.27;1.00;;;13.20;71.90;;;;;;5054234;28;20209;-72
2022/09/06 00:28:48;;;;;;;1.33;0.90;;;13.20;71.90;;;;;;5052965;28;20230;-73
2022/09/06 00:31:17;;;;;;;1.10;1.00;;;13.20;71.40;;;;;;5055213;28;20205;-73
2022/09/06 00:33:44;;;;;;;1.13;0.90;;;13.30;71.30;;;;;;5054624;28;20670;-73
2022/09/06 00:36:12;;;;;;;1.80;0.93;;;13.30;71.20;;;;;;5054803;28;20248;-73
2022/09/06 00:38:39;;;;;;;1.87;1.00;;;13.30;70.80;;;;;;5053683;28;20619;-72
2022/09/06 00:41:07;;;;;;;0.87;0.80;;;13.30;70.50;;;;;;5054833;28;20505;-72
2022/09/06 00:43:35;;;;;;;1.33;0.83;;;13.30;70.50;;;;;;5052645;28;20233;-73
2022/09/06 00:46:04;;;;;;;1.93;0.87;;;13.30;70.50;;;;;;5054955;28;20210;-72
2022/09/06 00:48:31;;;;;;;0.97;0.90;;;13.40;70.60;;;;;;5052266;28;20233;-73
2022/09/06 00:51:01;;;;;;;2.30;0.90;;;13.30;70.40;;;;;;5053363;28;20197;-73
2022/09/06 00:53:30;;;;;;;1.13;0.70;;;13.30;70.30;;;;;;5053424;28;20537;-73
2022/09/06 00:55:57;;;;;;;1.57;1.00;;;13.30;70.30;;;;;;5041313;28;20208;-74
2022/09/06 00:58:26;;;;;;;3.77;1.27;;;13.30;70.20;;;;;;5053028;28;20224;-72
2022/09/06 01:00:53;;;;;;;1.77;1.00;;;13.30;70.20;;;;;;5053444;28;20217;-72
2022/09/06 01:03:23;;;;;;;1.00;0.80;;;13.30;70.30;;;;;;5050664;28;20682;-72
2022/09/06 01:06:00;;;;;;;1.77;1.07;;;13.30;70.10;;;;;;5043800;28;20210;-73
2022/09/06 01:08:37;;;;;;;2.93;1.17;;;13.30;70.20;;;;;;5049949;28;20240;-74
2022/09/06 01:11:27;;;;;;;1.13;0.90;;;13.30;70.40;;;;;;5053046;28;20208;-73
2022/09/06 01:14:04;;;;;;;2.57;1.00;;;13.30;70.40;;;;;;5053932;28;20206;-73
2022/09/06 01:16:39;;;;;;;1.40;1.07;;;13.30;70.50;;;;;;5049591;28;20198;-73
2022/09/06 01:19:29;;;;;;;3.43;1.20;;;13.20;70.70;;;;;;5052623;28;20220;-73
2022/09/06 01:22:09;;;;;;;1.00;0.90;;;13.20;70.90;;;;;;5051993;28;20222;-71
2022/09/06 01:25:00;;;;;;;1.33;1.03;;;13.30;71.20;;;;;;5053044;28;20202;-70
2022/09/06 01:27:53;;;;;;;4.87;1.27;;;13.30;71.30;;;;;;5049766;28;20527;-72
2022/09/06 01:30:21;;;;;;;2.33;0.93;;;13.20;71.00;;;;;;5032389;28;20202;-71
2022/09/06 01:32:56;;;;;;;1.10;1.00;;;13.20;71.20;;;;;;5051217;28;20209;-70
2022/09/06 01:35:30;;;;;;;3.90;0.90;;;13.20;71.50;;;;;;5049569;28;20841;-71
2022/09/06 01:37:58;;;;;;;0.80;0.80;;;13.20;71.40;;;;;;5048791;28;20233;-71
2022/09/06 01:40:25;;;;;;;4.97;1.20;;;13.20;71.50;;;;;;5050650;28;20666;-70
2022/09/06 01:42:54;;;;;;;1.63;1.00;;;13.20;71.60;;;;;;5052093;28;20210;-71
2022/09/06 01:45:29;;;;;;;1.83;1.10;;;13.20;71.60;;;;;;5052439;28;20213;-71
2022/09/06 01:48:09;;;;;;;2.10;1.10;;;13.20;71.50;;;;;;5049810;28;20217;-70
2022/09/06 01:50:50;;;;;;;2.63;1.00;;;13.10;71.50;;;;;;5046406;28;20326;-70
2022/09/06 01:53:31;;;;;;;1.37;1.00;;;13.20;71.80;;;;;;5047477;28;20197;-71
2022/09/06 01:56:07;;;;;;;2.33;0.77;;;13.20;71.50;;;;;;5050926;28;20598;-70
2022/09/06 01:58:57;;;;;;;1.20;1.10;;;13.20;71.20;;;;;;5051430;28;20577;-71
2022/09/06 02:01:30;;;;;;;2.13;0.83;;;13.20;71.20;;;;;;5043997;28;20563;-70
2022/09/06 02:04:01;;;;;;;6.13;0.97;;;13.20;71.20;;;;;;5050900;28;20295;-70
2022/09/06 02:06:30;;;;;;;2.93;1.03;;;13.20;71.70;;;;;;5044483;28;20217;-70
2022/09/06 02:09:03;;;;;;;1.67;0.97;;;13.20;70.70;;;;;;5040770;28;20230;-70
2022/09/06 02:11:37;;;;;;;2.80;1.00;;;13.20;70.80;;;;;;5047270;28;20208;-70
2022/09/06 02:14:10;;;;;;;1.80;1.23;;;13.20;71.00;;;;;;5051694;28;20654;-70
2022/09/06 02:16:40;;;;;;;1.83;0.93;;;13.20;71.20;;;;;;5050237;28;20237;-71
2022/09/06 02:19:12;;;;;;;2.10;1.00;;;13.10;71.10;;;;;;5050890;28;20661;-70
2022/09/06 02:21:44;;;;;;;5.50;1.10;;;13.20;71.20;;;;;;5051543;28;20846;-70
2022/09/06 02:24:15;;;;;;;1.33;1.00;;;13.20;71.50;;;;;;5052585;28;20210;-70
2022/09/06 02:26:44;;;;;;;2.83;0.97;;;13.20;71.70;;;;;;5047200;28;20205;-70
2022/09/06 02:29:13;;;;;;;1.83;1.10;;;13.20;71.80;;;;;;5051250;28;20932;-71
2022/09/06 02:31:45;;;;;;;4.93;1.00;;;13.10;71.80;;;;;;5050998;28;20236;-70
2022/09/06 02:34:16;;;;;;;1.90;1.67;;;13.10;71.90;;;;;;5051089;28;20827;-70
2022/09/06 02:36:43;;;;;;;1.73;1.17;;;13.10;72.00;;;;;;5052955;28;20249;-70
2022/09/06 02:39:10;;;;;;;1.50;1.10;;;13.10;72.10;;;;;;5052788;28;20202;-70
2022/09/06 02:41:39;;;;;;;1.90;1.33;;;13.10;72.20;;;;;;5055153;28;20210;-70
2022/09/06 02:44:06;;;;;;;1.10;1.00;;;13.10;72.40;;;;;;5055384;28;20233;-70
2022/09/06 02:46:34;;;;;;;1.90;0.90;;;13.00;72.40;;;;;;5054234;28;20202;-70
2022/09/06 02:49:01;;;;;;;1.20;1.00;;;12.90;72.50;;;;;;5054695;28;20221;-70
2022/09/06 02:51:28;;;;;;;2.63;0.87;;;13.00;72.70;;;;;;5051092;28;20615;-70
2022/09/06 02:53:55;;;;;;;3.20;1.30;;;13.00;72.80;;;;;;5054707;28;20209;-71
2022/09/06 02:56:22;;;;;;;1.13;1.03;;;13.00;73.10;;;;;;5053492;28;20241;-71
2022/09/06 02:58:49;;;;;;;2.17;1.20;;;12.90;73.30;;;;;;5053715;28;20206;-70
2022/09/06 03:01:16;;;;;;;2.90;0.90;;;12.90;73.50;;;;;;5054155;28;20206;-70
2022/09/06 03:03:44;;;;;;;3.57;1.30;;;12.90;74.50;;;;;;5053793;28;20214;-71
2022/09/06 03:06:11;;;;;;;2.53;1.27;;;12.90;73.90;;;;;;5048633;28;20648;-70
2022/09/06 03:08:38;;;;;;;2.17;1.43;;;12.80;73.90;;;;;;5053423;28;20225;-70
2022/09/06 03:11:04;;;;;;;5.73;1.43;;;12.90;74.20;;;;;;5049560;28;20226;-71
2022/09/06 03:13:31;;;;;;;2.73;1.10;;;12.80;74.20;;;;;;5054790;28;20216;-70
2022/09/06 03:16:00;;;;;;;3.13;1.90;;;12.90;74.30;;;;;;5053836;28;20206;-70
2022/09/06 03:18:28;;;;;;;1.43;1.30;;;12.80;74.20;;;;;;5054386;28;20190;-70
2022/09/06 03:20:57;;;;;;;1.87;1.23;;;12.80;74.40;;;;;;5055811;28;20486;-71
2022/09/06 03:23:26;;;;;;;1.30;0.97;;;12.90;74.60;;;;;;5049609;28;20226;-71
2022/09/06 03:25:54;;;;;;;2.00;1.20;;;12.80;74.60;;;;;;5052835;28;20209;-69
2022/09/06 03:28:21;;;;;;;2.93;1.53;;;12.80;74.60;;;;;;5051497;28;20252;-70
2022/09/06 03:30:50;;;;;;;1.90;1.20;;;12.80;75.40;;;;;;5053303;28;20213;-71
2022/09/06 03:33:17;;;;;;;2.90;1.40;;;12.80;74.80;;;;;;5052823;28;20208;-70
2022/09/06 03:35:47;;;;;;;2.30;1.30;;;12.80;75.50;;;;;;5053513;28;20217;-72
2022/09/06 03:38:16;;;;;;;2.83;1.10;;;12.90;74.70;;;;;;5053719;28;20274;-71
2022/09/06 03:40:45;;;;;;;1.40;1.30;;;12.90;74.40;;;;;;5043695;28;20658;-71
2022/09/06 03:43:12;;;;;;;3.10;1.97;;;12.90;74.30;;;;;;5044793;28;20233;-71
2022/09/06 03:45:39;;;;;;;3.40;2.03;;;12.90;74.40;;;;;;5050793;28;20563;-71
2022/09/06 03:48:05;;;;;;;2.93;1.77;;;13.00;74.40;;;;;;5053148;28;20229;-71
2022/09/06 03:50:32;;;;;;;3.60;1.60;;;13.00;74.40;;;;;;5054972;28;20210;-71
2022/09/06 03:52:59;;;;;;;1.33;1.13;;;13.10;74.60;;;;;;5054563;28;20220;-70
2022/09/06 03:55:27;;;;;;;3.03;1.70;;;13.10;74.30;;;;;;5054451;28;20585;-71
2022/09/06 03:57:54;;;;;;;4.37;3.23;;;13.10;74.20;;;;;;5049520;28;20214;-71
2022/09/06 04:00:22;;;;;;;5.40;1.80;;;13.10;74.20;;;;;;5054995;28;20241;-72
2022/09/06 04:02:49;;;;;;;4.30;1.20;;;13.20;74.20;;;;;;5054485;28;20208;-70
2022/09/06 04:05:17;;;;;;;2.47;1.27;;;13.20;74.00;;;;;;5053099;28;20548;-71
2022/09/06 04:07:43;;;;;;;2.73;1.70;;;13.20;74.00;;;;;;5053632;28;20201;-70
2022/09/06 04:10:11;;;;;;;3.17;1.60;;;13.20;74.00;;;;;;5052750;28;20475;-71
2022/09/06 04:12:39;;;;;;;5.00;1.50;;;13.20;74.00;;;;;;5051473;28;20201;-71
2022/09/06 04:15:06;;;;;;;3.40;1.33;;;13.20;74.10;;;;;;5041718;28;20234;-71
2022/09/06 04:17:33;;;;;;;2.70;1.50;;;13.20;74.20;;;;;;5053304;28;20206;-71
2022/09/06 04:20:00;;;;;;;1.63;1.30;;;13.20;74.30;;;;;;5053285;28;20210;-71
2022/09/06 04:22:27;;;;;;;1.80;1.50;;;13.20;74.30;;;;;;5051568;28;20233;-71
2022/09/06 04:24:53;;;;;;;1.43;1.00;;;13.20;75.00;;;;;;5052246;28;20518;-71
2022/09/06 04:27:20;;;;;;;2.60;1.17;;;13.20;74.00;;;;;;5052917;28;20210;-70
2022/09/06 04:29:48;;;;;;;2.80;1.30;;;13.20;73.80;;;;;;5051035;28;20237;-71
2022/09/06 04:32:15;;;;;;;1.20;1.10;;;13.20;73.70;;;;;;5051962;28;20723;-72
2022/09/06 04:34:42;;;;;;;2.10;1.13;;;13.20;73.70;;;;;;5049488;28;20214;-69
2022/09/06 04:37:08;;;;;;;2.43;1.67;;;13.20;73.60;;;;;;5052024;28;20233;-70
2022/09/06 04:39:35;;;;;;;3.47;1.50;;;13.30;73.80;;;;;;5057084;28;20209;-70
2022/09/06 04:42:02;;;;;;;4.80;2.43;;;13.30;73.70;;;;;;5056755;28;20201;-70
2022/09/06 04:44:29;;;;;;;3.23;1.67;;;13.30;73.20;;;;;;5042653;28;20201;-70
2022/09/06 04:47:06;;;;;;;2.03;1.33;;;13.40;73.20;;;;;;5044684;28;20214;-70
2022/09/06 04:49:33;;;;;;;3.13;1.30;;;13.50;72.80;;;;;;5039033;28;20213;-72
2022/09/06 04:51:59;;;;;;;1.00;0.90;;;13.60;72.60;;;;;;5052076;28;20553;-70
2022/09/06 04:54:26;;;;;;;3.73;1.33;;;13.70;72.40;;;;;;5051006;28;20209;-71
2022/09/06 04:56:53;;;;;;;4.63;1.63;;;13.70;71.70;;;;;;5045672;28;20213;-71
2022/09/06 04:59:19;;;;;;;4.03;1.30;;;13.70;71.20;;;;;;5049523;28;20673;-71
2022/09/06 05:01:46;;;;;;;7.50;1.10;;;13.80;71.20;;;;;;5042268;28;20599;-70
2022/09/06 05:04:14;;;;;;;5.07;1.30;;;13.80;71.00;;;;;;5048724;28;20683;-70
2022/09/06 05:06:42;;;;;;;1.73;1.23;;;13.80;70.90;;;;;;5043448;28;20265;-71
2022/09/06 05:09:09;;;;;;;3.87;1.33;;;13.90;70.80;;;;;;5050104;28;20218;-72
2022/09/06 05:11:36;;;;;;;6.00;1.43;;;13.80;70.80;;;;;;5043836;28;20294;-71
2022/09/06 05:14:03;;;;;;;3.47;1.20;;;13.90;71.10;;;;;;5048150;28;20225;-71
2022/09/06 05:16:30;;;;;;;2.00;1.07;;;14.00;71.00;;;;;;5048839;28;20213;-71
2022/09/06 05:18:57;;;;;;;6.27;1.37;;;14.00;71.00;;;;;;5051166;28;20213;-70
2022/09/06 05:21:25;;;;;;;2.13;1.40;;;14.10;70.50;;;;;;5050657;28;20210;-71
2022/09/06 05:23:52;;;;;;;1.20;1.10;;;14.10;70.20;;;;;;5052143;28;20674;-72
2022/09/06 05:26:19;;;;;;;6.30;1.23;;;14.20;69.80;;;;;;5043323;28;20206;-71
2022/09/06 05:28:46;;;;;;;4.20;1.40;;;14.20;69.20;;;;;;5044155;28;20651;-70
2022/09/06 05:31:23;;;;;;;2.97;1.43;;;14.30;69.40;;;;;;5050108;28;20198;-72
2022/09/06 05:33:51;;;;;;;2.10;1.50;;;14.30;69.50;;;;;;5051834;28;20406;-68
2022/09/06 05:36:18;;;;;;;4.97;1.60;;;14.40;69.60;;;;;;5045925;28;20621;-70
2022/09/06 05:38:46;;;;;;;3.13;1.57;;;14.40;69.50;;;;;;5050707;28;20268;-72
2022/09/06 05:41:13;;;;;;;1.33;1.20;;;14.40;69.10;;;;;;5045499;28;20213;-71
2022/09/06 05:43:40;;;;;;;2.27;1.20;;;14.40;69.20;;;;;;5049981;28;20223;-71
2022/09/06 05:46:06;;;;;;;1.93;1.10;;;14.40;68.90;;;;;;5044340;28;20202;-71
2022/09/06 05:48:33;;;;;;;5.13;1.27;;;14.40;69.00;;;;;;5042764;28;20261;-71
2022/09/06 05:51:01;;;;;;;2.33;1.13;;;14.40;68.90;;;;;;5048591;28;20706;-69
2022/09/06 05:53:33;;;;;;;6.53;1.37;;;14.40;69.00;;;;;;5046515;28;20295;-69
2022/09/06 05:56:02;;;;;;;1.90;1.33;;;14.50;69.10;;;;;;5039135;28;20645;-72
2022/09/06 05:58:28;;;;;;;3.50;1.07;;;14.50;69.10;;;;;;5038138;28;20620;-70
2022/09/06 06:01:05;;;;;;;7.47;1.50;;;14.60;69.20;;;;;;5045243;28;20734;-70
2022/09/06 06:03:31;;;;;;;3.67;1.27;;;14.60;68.80;;;;;;5049826;28;20198;-72
2022/09/06 06:05:58;;;;;;;5.17;1.50;;;14.70;68.70;;;;;;5049380;28;20206;-77
2022/09/06 06:08:25;;;;;;;12.20;1.70;;;14.70;68.50;;;;;;5047480;28;20217;-76
2022/09/06 06:10:52;;;;;;;2.80;1.37;;;14.80;68.30;;;;;;5037162;28;20230;-73
2022/09/06 06:13:20;;;;;;;2.97;1.10;;;14.80;68.30;;;;;;5039268;28;20209;-73
2022/09/06 06:15:46;;;;;;;4.63;1.63;;;14.90;68.30;;;;;;5046983;28;20206;-77
2022/09/06 06:18:13;;;;;;;4.27;1.50;;;15.00;68.20;;;;;;5054099;28;20202;-74
2022/09/06 06:20:40;;;;;;;2.30;1.20;;;15.10;68.00;;;;;;5051136;28;20206;-75
2022/09/06 06:23:07;;;;;;;1.47;1.17;;;15.20;67.40;;;;;;5048931;28;20225;-71
2022/09/06 06:25:33;;;;;;;8.70;3.97;;;15.20;67.20;;;;;;5041505;28;20671;-70
2022/09/06 06:28:00;;;;;;;12.90;5.40;;;15.30;67.00;;;;;;5042139;28;20205;-72
2022/09/06 06:30:28;;;;;;;2.17;1.70;;;15.40;67.00;;;;;;5042792;28;20225;-71
2022/09/06 06:32:57;;;;;;;5.57;1.80;;;15.50;66.20;;;;;;5040946;28;20225;-69
2022/09/06 06:35:24;;;;;;;4.13;1.63;;;15.50;65.90;;;;;;5045225;28;20210;-71
2022/09/06 06:37:51;;;;;;;4.70;2.20;;;15.50;65.50;;;;;;5048644;28;20633;-69
2022/09/06 06:40:18;;;;;;;6.27;1.50;;;15.50;65.70;;;;;;5048798;28;20198;-70
2022/09/06 06:42:44;;;;;;;7.30;2.27;;;15.60;64.80;;;;;;5050337;28;20206;-70
2022/09/06 06:45:11;;;;;;;2.27;1.50;;;15.60;65.20;;;;;;5050919;28;20206;-69
2022/09/06 06:47:39;;;;;;;5.77;1.63;;;15.70;65.60;;;;;;5046841;28;20300;-69
2022/09/06 06:50:07;;;;;;;4.50;2.00;;;15.80;65.40;;;;;;5039187;28;20613;-70
2022/09/06 06:52:33;;;;;;;1.30;1.07;;;15.90;64.60;;;;;;5048281;28;20205;-69
2022/09/06 06:55:00;;;;;;;3.42;1.17;;;15.90;64.50;;;;;;5049246;28;20564;-70
2022/09/06 06:57:27;;;;;;;1.90;1.47;;;15.90;64.10;;;;;;5050514;28;20210;-70
2022/09/06 06:59:54;;;;;;;2.95;1.10;;;16.10;64.50;;;;;;5050381;28;20212;-69
2022/09/06 07:02:20;;;;;;;3.43;1.80;;;16.10;63.90;;;;;;5048157;28;20779;-70
2022/09/06 07:04:48;;;;;;;2.83;1.20;;;16.20;64.30;;;;;;5052045;28;20224;-71
2022/09/06 07:07:15;;;;;;;3.63;1.00;;;16.40;64.00;;;;;;5050183;28;20562;-70
2022/09/06 07:09:42;;;;;;;3.90;1.42;;;16.40;63.10;;;;;;5048726;28;20222;-69
2022/09/06 07:12:09;;;;;;;5.43;1.40;;;16.50;63.20;;;;;;5050061;28;20210;-70
2022/09/06 07:14:35;;;;;;;2.67;1.20;;;16.70;63.10;;;;;;5050144;28;20210;-69
2022/09/06 07:17:02;;;;;;;5.05;1.05;;;16.80;62.60;;;;;;5047816;28;20701;-70
2022/09/06 07:19:29;;;;;;;1.10;0.73;;;16.80;62.30;;;;;;5049638;28;20202;-70
2022/09/06 07:21:57;;;;;;;3.20;1.05;;;16.90;62.00;;;;;;5050411;28;20234;-70
2022/09/06 07:24:24;;;;;;;3.88;1.15;;;17.00;61.90;;;;;;5040921;28;20202;-70
2022/09/06 07:26:51;;;;;;;2.60;1.02;;;17.10;61.10;;;;;;5048298;28;20232;-70
2022/09/06 07:29:18;;;;;;;1.77;0.70;;;17.20;60.50;;;;;;5042238;28;20742;-70
2022/09/06 07:31:45;;;;;;;2.85;1.13;;;17.20;59.90;;;;;;5041521;28;20559;-73
2022/09/06 07:34:12;;;;;;;3.30;0.88;;;17.30;59.40;;;;;;5054461;28;20229;-70
2022/09/06 07:36:39;;;;;;;5.15;1.30;;;17.40;59.00;;;;;;5054540;28;20737;-73
2022/09/06 07:39:07;;;;;;;2.90;1.20;;;17.50;58.70;;;;;;5054880;28;20835;-72
2022/09/06 07:41:34;;;;;;;4.70;0.93;;;17.60;58.50;;;;;;5050051;28;20205;-72
2022/09/06 07:44:00;;;;;;;1.42;0.90;;;17.70;58.00;;;;;;5050259;28;20206;-72
2022/09/06 07:46:27;;;;;;;3.13;0.95;;;17.80;57.80;;;;;;5052257;28;20713;-72
2022/09/06 07:48:54;;;;;;;0.80;0.80;;;17.90;57.90;;;;;;5047736;28;20205;-72
2022/09/06 07:51:22;;;;;;;2.72;0.80;;;18.10;57.50;;;;;;5041736;28;20222;-72
2022/09/06 07:53:50;;;;;;;3.28;0.68;;;18.10;56.80;;;;;;5044976;28;20209;-71
2022/09/06 07:56:20;;;;;;;6.03;2.92;;;18.20;56.70;;;;;;5047471;28;20711;-72
2022/09/06 07:58:47;;;;;;;3.47;1.00;;;18.30;56.30;;;;;;5037297;28;20250;-73
2022/09/06 08:01:16;;;;;;;3.25;0.98;;;18.40;56.60;;;;;;5048865;28;20202;-73
2022/09/06 08:03:44;;;;;;;1.17;0.90;;;18.50;56.90;;;;;;5052122;28;21967;-72
2022/09/06 08:06:11;;;;;;;2.65;0.73;;;18.70;56.80;;;;;;5042939;28;20202;-71
2022/09/06 08:08:38;;;;;;;2.38;0.88;;;18.80;56.40;;;;;;5041111;28;20206;-70
2022/09/06 08:11:06;;;;;;;0.75;0.75;;;18.90;56.30;;;;;;5047048;28;20221;-71
2022/09/06 08:13:34;;;;;;;2.28;0.80;;;19.00;55.90;;;;;;5050971;28;20202;-71
2022/09/06 08:16:02;;;;;;;1.35;0.70;;;19.10;55.50;;;;;;5048975;28;20221;-72
2022/09/06 08:18:29;;;;;;;1.88;0.90;;;19.20;55.60;;;;;;5040562;28;20202;-73
2022/09/06 08:20:56;;;;;;;0.80;0.80;;;19.40;55.50;;;;;;5034022;28;20239;-71
2022/09/06 08:23:22;;;;;;;1.48;0.65;;;19.50;54.80;;;;;;5036775;28;20227;-73
2022/09/06 08:25:57;;;;;;;4.78;0.82;;;19.70;54.50;;;;;;5044868;28;20275;-72
2022/09/06 08:28:24;;;;;;;1.08;1.02;;;19.90;54.20;;;;;;5049344;28;20225;-73
2022/09/06 08:30:52;;;;;;;2.70;1.30;;;20.00;53.60;;;;;;5046760;28;20230;-70
2022/09/06 08:33:20;;;;;;;0.60;0.60;;;20.10;52.80;;;;;;5035814;28;20218;-72
2022/09/06 08:35:56;;;;;;;0.77;0.60;;;20.10;53.00;;;;;;5045446;28;20220;-70
2022/09/06 08:38:22;;;;;;;4.80;3.75;;;20.20;52.70;;;;;;5049149;28;20667;-71
2022/09/06 08:40:50;;;;;;;2.25;1.00;;;20.20;52.70;;;;;;5048673;28;20206;-71
2022/09/06 08:43:19;;;;;;;5.28;1.20;;;20.30;53.00;;;;;;5051102;28;20214;-71
2022/09/06 08:45:50;;;;;;;2.08;0.82;;;20.50;53.40;;;;;;5051631;28;20210;-71
2022/09/06 08:48:18;;;;;;;4.75;0.80;;;20.70;53.20;;;;;;5048576;28;20205;-71
2022/09/06 08:51:08;;;;;;;0.77;0.77;;;20.90;52.00;;;;;;5044665;28;20754;-71
2022/09/06 08:53:39;;;;;;;3.72;1.05;;;21.00;51.20;;;;;;5043746;28;20221;-71
2022/09/06 08:56:14;;;;;;;1.23;0.60;;;21.10;51.20;;;;;;5045647;28;20206;-70
2022/09/06 08:59:02;;;;;;;2.65;1.40;;;21.20;51.20;;;;;;5048036;28;20225;-73
2022/09/06 09:01:36;;;;;;;1.27;0.50;;;21.40;50.70;;;;;;5050569;28;20666;-74
2022/09/06 09:04:06;;;;;;;1.85;0.80;;;21.60;50.50;;;;;;5048152;28;20199;-74
2022/09/06 09:06:33;;;;;;;0.93;0.60;;;21.60;49.70;;;;;;5050902;28;20221;-72
2022/09/06 09:09:04;;;;;;;0.75;0.50;;;21.60;50.00;;;;;;5048046;28;20210;-70
2022/09/06 09:11:32;;;;;;;2.47;0.85;;;21.70;49.90;;;;;;5042542;28;20255;-71
2022/09/06 09:14:05;;;;;;;2.05;0.50;;;22.10;50.80;;;;;;5042004;28;20229;-73
2022/09/06 09:16:33;;;;;;;0.35;0.35;;;22.90;50.50;;;;;;5041937;28;20206;-73
2022/09/06 09:19:02;;;;;;;1.20;0.50;;;23.60;49.20;;;;;;5041988;28;20201;-73
2022/09/06 09:21:32;;;;;;;1.48;0.63;;;24.30;48.20;;;;;;5050100;28;20545;-73
2022/09/06 09:24:05;;;;;;;0.95;0.73;;;24.80;47.00;;;;;;5050724;28;20232;-72
2022/09/06 09:26:37;;;;;;;1.75;0.50;;;25.00;46.10;;;;;;5050290;28;20702;-74
2022/09/06 09:29:11;;;;;;;2.10;0.85;;;25.10;45.50;;;;;;5045192;28;20202;-74
2022/09/06 09:31:39;;;;;;;1.20;1.10;;;25.40;45.70;;;;;;5051751;28;20250;-73
2022/09/06 09:34:12;;;;;;;0.60;0.60;;;25.50;44.60;;;;;;5047141;28;20210;-72
2022/09/06 09:36:40;;;;;;;0.50;0.40;;;25.50;44.40;;;;;;5049707;28;20643;-73
2022/09/06 09:39:11;;;;;;;2.40;0.50;;;25.80;44.80;;;;;;5052106;28;20205;-73
2022/09/06 09:41:41;;;;;;;1.38;0.50;;;25.80;43.30;;;;;;5053172;28;20206;-72
2022/09/06 09:44:11;;;;;;;1.15;0.57;;;25.80;44.10;;;;;;5049839;28;20214;-72
2022/09/06 09:46:40;;;;;;;1.00;0.63;;;26.00;44.20;;;;;;5049704;28;20236;-73
2022/09/06 09:49:10;;;;;;;0.95;0.50;;;26.30;44.00;;;;;;5050895;28;20209;-73
2022/09/06 09:51:40;;;;;;;1.98;0.50;;;26.60;43.30;;;;;;5045140;28;20226;-72
2022/09/06 09:54:09;;;;;;;0.75;0.40;;;26.80;43.30;;;;;;5045994;28;20221;-74
2022/09/06 09:56:47;;;;;;;1.35;0.40;;;27.00;42.20;;;;;;5043887;28;20201;-72
2022/09/06 09:59:23;;;;;;;0.40;0.40;;;26.80;42.70;;;;;;5050423;28;20201;-72
2022/09/06 10:01:53;;;;;;;3.03;0.70;;;27.10;43.00;;;;;;5050132;28;20210;-72
2022/09/06 10:04:25;;;;;;;1.60;0.50;;;27.50;42.00;;;;;;5048334;28;20206;-72
2022/09/06 10:06:53;;;;;;;0.98;0.57;;;28.00;41.40;;;;;;5045820;28;20206;-73
2022/09/06 10:09:34;;;;;;;0.60;0.47;;;28.40;40.60;;;;;;5042137;28;20205;-73
2022/09/06 10:12:01;;;;;;;0.47;0.43;;;28.00;39.80;;;;;;5048881;28;20698;-74
2022/09/06 10:14:30;;;;;;;2.53;0.93;;;27.30;40.40;;;;;;5043327;28;20209;-73
2022/09/06 10:16:58;;;;;;;2.15;0.40;;;27.00;41.00;;;;;;5041289;28;20547;-74
2022/09/06 10:19:41;;;;;;;1.02;0.50;;;26.80;41.40;;;;;;5046098;28;20232;-73
2022/09/06 10:22:29;;;;;;;2.92;0.55;;;26.70;42.00;;;;;;5046908;28;20226;-75
2022/09/06 10:25:19;;;;;;;2.15;0.50;;;27.00;41.80;;;;;;5045705;28;20206;-75
2022/09/06 10:28:17;;;;;;;1.52;0.60;;;27.20;40.80;;;;;;5051191;28;20206;-73
2022/09/06 10:30:53;;;;;;;1.77;0.40;;;27.40;40.40;;;;;;5049771;28;20217;-74
2022/09/06 10:33:29;;;;;;;0.55;0.47;;;27.50;40.20;;;;;;5047840;28;20749;-73
2022/09/06 10:35:58;;;;;;;1.35;0.80;;;27.40;40.10;;;;;;5038537;28;20219;-73
2022/09/06 10:38:37;;;;;;;1.75;0.50;;;27.50;40.80;;;;;;5049320;28;20205;-73
2022/09/06 10:41:23;;;;;;;1.60;0.73;;;27.70;40.00;;;;;;5037662;28;20208;-74
2022/09/06 10:44:00;;;;;;;1.70;0.45;;;27.70;40.00;;;;;;5044263;28;20217;-71
2022/09/06 10:46:27;;;;;;;0.40;0.40;;;27.80;39.70;;;;;;5049469;28;20271;-73
2022/09/06 10:48:55;;;;;;;0.55;0.50;;;27.80;39.30;;;;;;5050588;28;20214;-73
2022/09/06 10:51:32;;;;;;;0.40;0.40;;;27.60;39.00;;;;;;5044503;28;20225;-70
2022/09/06 10:54:06;;;;;;;3.45;0.47;;;27.20;39.10;;;;;;5044646;28;20209;-72
2022/09/06 10:56:39;;;;;;;0.55;0.50;;;26.70;39.70;;;;;;5048902;28;20193;-72
2022/09/06 10:59:13;;;;;;;1.08;0.40;;;26.40;40.00;;;;;;5052704;28;20205;-76
2022/09/06 11:01:43;;;;;;;0.85;0.45;;;26.30;40.40;;;;;;5051492;28;20613;-71
2022/09/06 11:04:19;;;;;;;1.67;0.60;;;26.30;40.30;;;;;;5048800;28;20222;-75
2022/09/06 11:06:51;;;;;;;1.02;0.40;;;26.70;40.00;;;;;;5054805;28;20210;-71
2022/09/06 11:09:27;;;;;;;0.88;0.40;;;27.30;39.50;;;;;;5054517;28;20437;-70
2022/09/06 11:12:02;;;;;;;0.52;0.45;;;27.60;39.10;;;;;;5051634;28;20228;-70
2022/09/06 11:14:29;;;;;;;1.35;0.80;;;27.60;39.20;;;;;;5048375;28;20201;-71
2022/09/06 11:17:00;;;;;;;0.60;0.57;;;27.80;38.80;;;;;;5047864;28;20206;-72
2022/09/06 11:19:34;;;;;;;2.25;0.60;;;28.00;39.00;;;;;;5048403;28;20516;-71
2022/09/06 11:22:34;;;;;;;0.50;0.45;;;28.40;38.50;;;;;;5051594;28;20230;-71
2022/09/06 11:25:40;;;;;;;0.60;0.60;;;28.50;37.50;;;;;;5031665;28;20206;-71
2022/09/06 11:28:11;;;;;;;0.63;0.63;;;28.50;37.70;;;;;;5039751;28;20210;-72
2022/09/06 11:30:42;;;;;;;1.70;0.52;;;28.40;37.50;;;;;;5042926;28;20234;-71
2022/09/06 11:33:19;;;;;;;0.40;0.40;;;28.10;37.00;;;;;;5046623;28;20289;-72
2022/09/06 11:35:46;;;;;;;3.08;0.82;;;27.70;37.90;;;;;;5054050;28;20210;-72
2022/09/06 11:38:23;;;;;;;3.80;0.88;;;27.80;38.60;;;;;;5048373;28;20521;-70
2022/09/06 11:40:58;;;;;;;2.90;0.50;;;28.10;37.20;;;;;;5047951;28;20697;-71
2022/09/06 11:43:47;;;;;;;2.03;1.10;;;28.10;37.30;;;;;;5039245;28;20353;-71
2022/09/06 11:46:48;;;;;;;1.70;0.70;;;28.10;36.60;;;;;;5042432;28;20210;-71
2022/09/06 11:49:29;;;;;;;2.90;0.70;;;28.00;37.50;;;;;;5044868;28;20287;-72
2022/09/06 11:51:56;;;;;;;0.70;0.30;;;28.00;37.60;;;;;;5049442;28;20282;-71
2022/09/06 11:54:34;;;;;;;4.50;0.70;;;28.40;37.20;;;;;;5047721;28;20213;-70
2022/09/06 11:57:13;;;;;;;3.42;0.60;;;28.90;36.60;;;;;;5051537;28;20201;-72
2022/09/06 11:59:54;;;;;;;2.00;0.57;;;29.10;36.30;;;;;;5050772;28;20202;-72
2022/09/06 12:02:36;;;;;;;1.98;0.50;;;29.10;36.70;;;;;;5053572;28;20209;-69
2022/09/06 12:05:12;;;;;;;0.88;0.52;;;29.10;35.50;;;;;;5050160;28;20288;-71
2022/09/06 12:08:24;;;;;;;1.10;0.65;;;28.80;35.80;;;;;;5046954;28;20205;-69
2022/09/06 12:10:58;;;;;;;3.33;0.40;;;28.60;35.90;;;;;;5045442;28;20206;-70
2022/09/06 12:13:58;;;;;;;0.55;0.38;;;28.50;35.90;;;;;;5047300;28;20220;-73
2022/09/06 12:17:06;;;;;;;2.60;0.50;;;28.20;36.20;;;;;;5047065;28;20986;-72
2022/09/06 12:19:40;;;;;;;0.88;0.63;;;28.10;36.20;;;;;;5038856;28;20289;-72
2022/09/06 12:22:40;;;;;;;0.73;0.65;;;28.10;36.30;;;;;;5050129;28;20229;-71
2022/09/06 12:25:52;;;;;;;1.38;0.95;;;28.30;36.10;;;;;;5046847;28;20216;-72
2022/09/06 12:28:31;;;;;;;4.13;1.45;;;27.90;35.70;;;;;;5039671;28;20582;-72
2022/09/06 12:30:58;;;;;;;5.18;2.03;;;27.40;35.80;;;;;;5041318;28;20455;-71
2022/09/06 12:33:31;;;;;;;5.63;2.78;;;27.00;36.40;;;;;;5042752;28;20217;-69
2022/09/06 12:36:14;;;;;;;0.50;0.50;;;26.50;36.80;;;;;;5044281;28;20591;-73
2022/09/06 12:38:54;;;;;;;2.72;1.67;;;26.30;37.00;;;;;;5045568;28;20211;-70
2022/09/06 12:41:21;;;;;;;0.45;0.35;;;26.20;37.10;;;;;;5043712;28;20568;-70
2022/09/06 12:43:48;;;;;;;3.65;0.45;;;26.10;37.20;;;;;;5047908;28;20288;-71
2022/09/06 12:46:16;;;;;;;1.23;0.85;;;26.50;37.20;;;;;;5052842;28;20297;-73
2022/09/06 12:49:03;;;;;;;1.27;0.73;;;26.90;36.80;;;;;;5051279;28;20202;-71
2022/09/06 12:51:30;;;;;;;1.55;0.82;;;27.10;36.80;;;;;;5046223;28;20233;-72
2022/09/06 12:53:58;;;;;;;0.73;0.40;;;27.10;36.80;;;;;;5052245;28;20554;-71
2022/09/06 12:56:27;;;;;;;4.30;1.00;;;27.10;36.60;;;;;;5053246;28;20651;-72
2022/09/06 12:59:10;;;;;;;1.98;0.70;;;27.30;36.40;;;;;;5052166;28;20206;-72
2022/09/06 13:01:37;;;;;;;2.03;0.60;;;27.70;36.40;;;;;;5049453;28;20202;-72
2022/09/06 13:04:09;;;;;;;1.20;0.90;;;27.50;35.50;;;;;;5050922;28;20682;-72
2022/09/06 13:06:40;;;;;;;0.65;0.40;;;27.30;35.80;;;;;;5046806;28;20210;-72
2022/09/06 13:09:11;;;;;;;4.00;1.10;;;27.00;35.90;;;;;;5045672;28;20212;-71